sensor_id;sensor_type;location;lat;lon;timestamp;pressure;altitude;pressure_sealevel;temperature;humidity
75039;BME280;63609;49.992;14.512;2023-03-02T00:05:02;98685.69;;;-0.51;52.46
75039;BME280;63609;49.992;14.512;2023-03-02T00:07:31;98696.00;;;-0.28;51.66
75039;BME280;63609;49.992;14.512;2023-03-02T00:10:00;98693.16;;;-0.62;52.36
75039;BME280;63609;49.992;14.512;2023-03-02T00:12:28;98691.03;;;-0.34;51.71
75039;BME280;63609;49.992;14.512;2023-03-02T00:14:56;98696.56;;;-0.40;52.02
75039;BME280;63609;49.992;14.512;2023-03-02T00:17:23;98697.03;;;-0.51;51.96
75039;BME280;63609;49.992;14.512;2023-03-02T00:19:54;98688.09;;;-0.26;51.58
75039;BME280;63609;49.992;14.512;2023-03-02T00:22:41;98696.41;;;-0.17;51.35
75039;BME280;63609;49.992;14.512;2023-03-02T00:25:10;98691.22;;;-0.18;50.83
75039;BME280;63609;49.992;14.512;2023-03-02T00:27:38;98692.50;;;-0.27;51.56
75039;BME280;63609;49.992;14.512;2023-03-02T00:30:06;98685.59;;;-0.29;51.26
75039;BME280;63609;49.992;14.512;2023-03-02T00:32:33;98675.75;;;-0.24;50.83
75039;BME280;63609;49.992;14.512;2023-03-02T00:35:01;98671.50;;;-0.27;50.17
75039;BME280;63609;49.992;14.512;2023-03-02T00:37:28;98674.31;;;-0.31;50.86
75039;BME280;63609;49.992;14.512;2023-03-02T00:39:55;98672.47;;;-0.29;50.36
75039;BME280;63609;49.992;14.512;2023-03-02T00:42:22;98665.16;;;-0.41;49.58
75039;BME280;63609;49.992;14.512;2023-03-02T00:44:51;98655.78;;;-0.47;50.06
75039;BME280;63609;49.992;14.512;2023-03-02T00:47:18;98652.66;;;-0.55;50.71
75039;BME280;63609;49.992;14.512;2023-03-02T00:49:45;98650.69;;;-0.50;50.50
75039;BME280;63609;49.992;14.512;2023-03-02T00:52:16;98648.59;;;-0.62;50.72
75039;BME280;63609;49.992;14.512;2023-03-02T00:54:43;98651.09;;;-0.59;50.20
75039;BME280;63609;49.992;14.512;2023-03-02T00:57:10;98641.13;;;-0.71;49.06
75039;BME280;63609;49.992;14.512;2023-03-02T00:59:38;98652.81;;;-0.79;51.05
75039;BME280;63609;49.992;14.512;2023-03-02T01:02:17;98655.50;;;-0.80;51.26
75039;BME280;63609;49.992;14.512;2023-03-02T01:04:50;98650.97;;;-0.77;50.71
75039;BME280;63609;49.992;14.512;2023-03-02T01:07:20;98644.22;;;-0.82;51.28
75039;BME280;63609;49.992;14.512;2023-03-02T01:09:47;98628.69;;;-0.87;50.62
75039;BME280;63609;49.992;14.512;2023-03-02T01:12:15;98637.94;;;-0.78;51.50
75039;BME280;63609;49.992;14.512;2023-03-02T01:14:45;98638.78;;;-0.78;52.06
75039;BME280;63609;49.992;14.512;2023-03-02T01:17:13;98628.72;;;-0.68;51.30
75039;BME280;63609;49.992;14.512;2023-03-02T01:19:40;98629.00;;;-0.74;51.76
75039;BME280;63609;49.992;14.512;2023-03-02T01:22:07;98630.91;;;-0.78;51.15
75039;BME280;63609;49.992;14.512;2023-03-02T01:24:35;98627.50;;;-0.80;50.85
75039;BME280;63609;49.992;14.512;2023-03-02T01:27:01;98631.53;;;-0.91;49.76
75039;BME280;63609;49.992;14.512;2023-03-02T01:29:28;98623.06;;;-0.98;50.36
75039;BME280;63609;49.992;14.512;2023-03-02T01:31:55;98625.66;;;-0.98;50.51
75039;BME280;63609;49.992;14.512;2023-03-02T01:34:22;98618.63;;;-1.16;50.01
75039;BME280;63609;49.992;14.512;2023-03-02T01:36:49;98613.63;;;-1.22;49.98
75039;BME280;63609;49.992;14.512;2023-03-02T01:39:16;98617.81;;;-1.18;49.74
75039;BME280;63609;49.992;14.512;2023-03-02T01:41:44;98607.50;;;-1.43;51.23
75039;BME280;63609;49.992;14.512;2023-03-02T01:47:24;98604.50;;;-1.54;53.16
75039;BME280;63609;49.992;14.512;2023-03-02T01:52:38;98601.94;;;-1.56;52.63
75039;BME280;63609;49.992;14.512;2023-03-02T01:55:09;98597.50;;;-1.76;53.34
75039;BME280;63609;49.992;14.512;2023-03-02T01:57:42;98602.69;;;-1.74;52.52
75039;BME280;63609;49.992;14.512;2023-03-02T02:00:20;98594.28;;;-1.82;53.13
75039;BME280;63609;49.992;14.512;2023-03-02T02:02:57;98593.13;;;-1.75;52.14
75039;BME280;63609;49.992;14.512;2023-03-02T02:05:40;98593.38;;;-1.81;52.98
75039;BME280;63609;49.992;14.512;2023-03-02T02:08:09;98594.81;;;-1.74;51.52
75039;BME280;63609;49.992;14.512;2023-03-02T02:10:38;98601.75;;;-1.73;52.53
75039;BME280;63609;49.992;14.512;2023-03-02T02:13:09;98591.94;;;-1.68;52.44
75039;BME280;63609;49.992;14.512;2023-03-02T02:15:37;98589.59;;;-1.74;53.19
75039;BME280;63609;49.992;14.512;2023-03-02T02:18:06;98585.00;;;-1.69;52.59
75039;BME280;63609;49.992;14.512;2023-03-02T02:20:42;98581.72;;;-1.74;51.45
75039;BME280;63609;49.992;14.512;2023-03-02T02:23:16;98585.84;;;-1.89;51.36
75039;BME280;63609;49.992;14.512;2023-03-02T02:28:28;98574.78;;;-1.97;52.06
75039;BME280;63609;49.992;14.512;2023-03-02T02:31:12;98574.56;;;-2.13;51.59
75039;BME280;63609;49.992;14.512;2023-03-02T02:33:43;98562.88;;;-2.04;51.33
75039;BME280;63609;49.992;14.512;2023-03-02T02:36:19;98565.75;;;-2.10;52.36
75039;BME280;63609;49.992;14.512;2023-03-02T02:38:51;98576.31;;;-1.91;53.81
75039;BME280;63609;49.992;14.512;2023-03-02T02:41:24;98568.91;;;-1.80;53.03
75039;BME280;63609;49.992;14.512;2023-03-02T02:43:54;98562.88;;;-1.82;53.73
75039;BME280;63609;49.992;14.512;2023-03-02T02:46:21;98567.19;;;-1.81;52.89
75039;BME280;63609;49.992;14.512;2023-03-02T02:48:48;98552.09;;;-1.96;53.10
75039;BME280;63609;49.992;14.512;2023-03-02T02:51:23;98552.63;;;-2.32;54.51
75039;BME280;63609;49.992;14.512;2023-03-02T02:54:05;98545.66;;;-2.10;55.20
75039;BME280;63609;49.992;14.512;2023-03-02T02:56:37;98544.63;;;-2.06;54.53
75039;BME280;63609;49.992;14.512;2023-03-02T03:01:47;98532.41;;;-2.05;52.40
75039;BME280;63609;49.992;14.512;2023-03-02T03:04:19;98542.56;;;-2.19;51.39
75039;BME280;63609;49.992;14.512;2023-03-02T03:06:55;98542.19;;;-2.10;52.23
75039;BME280;63609;49.992;14.512;2023-03-02T03:09:26;98538.31;;;-2.22;52.45
75039;BME280;63609;49.992;14.512;2023-03-02T03:12:31;98548.06;;;-2.27;51.97
75039;BME280;63609;49.992;14.512;2023-03-02T03:15:02;98554.34;;;-2.31;53.00
75039;BME280;63609;49.992;14.512;2023-03-02T03:17:29;98544.88;;;-2.12;52.79
75039;BME280;63609;49.992;14.512;2023-03-02T03:20:01;98552.69;;;-2.34;52.10
75039;BME280;63609;49.992;14.512;2023-03-02T03:22:40;98554.59;;;-2.37;51.63
75039;BME280;63609;49.992;14.512;2023-03-02T03:25:09;98550.28;;;-2.38;52.11
75039;BME280;63609;49.992;14.512;2023-03-02T03:27:50;98553.44;;;-2.30;52.46
75039;BME280;63609;49.992;14.512;2023-03-02T03:30:18;98550.94;;;-2.33;53.74
75039;BME280;63609;49.992;14.512;2023-03-02T03:32:47;98552.56;;;-2.31;53.04
75039;BME280;63609;49.992;14.512;2023-03-02T03:35:15;98549.34;;;-2.37;53.74
75039;BME280;63609;49.992;14.512;2023-03-02T03:37:43;98556.28;;;-2.36;54.43
75039;BME280;63609;49.992;14.512;2023-03-02T03:40:14;98562.78;;;-2.24;54.31
75039;BME280;63609;49.992;14.512;2023-03-02T03:42:42;98547.66;;;-2.38;55.21
75039;BME280;63609;49.992;14.512;2023-03-02T03:45:11;98560.59;;;-2.35;55.79
75039;BME280;63609;49.992;14.512;2023-03-02T03:47:41;98561.34;;;-2.32;55.57
75039;BME280;63609;49.992;14.512;2023-03-02T03:50:09;98557.34;;;-2.18;55.86
75039;BME280;63609;49.992;14.512;2023-03-02T03:52:37;98556.72;;;-2.25;55.82
75039;BME280;63609;49.992;14.512;2023-03-02T03:55:16;98559.91;;;-2.17;55.75
75039;BME280;63609;49.992;14.512;2023-03-02T03:57:45;98565.94;;;-2.15;56.64
75039;BME280;63609;49.992;14.512;2023-03-02T04:00:14;98552.16;;;-1.98;55.42
75039;BME280;63609;49.992;14.512;2023-03-02T04:02:50;98558.13;;;-1.94;53.75
75039;BME280;63609;49.992;14.512;2023-03-02T04:05:18;98555.16;;;-1.85;54.05
75039;BME280;63609;49.992;14.512;2023-03-02T04:07:49;98551.06;;;-1.92;54.38
75039;BME280;63609;49.992;14.512;2023-03-02T04:10:16;98557.22;;;-2.15;54.14
75039;BME280;63609;49.992;14.512;2023-03-02T04:12:45;98560.81;;;-2.18;55.25
75039;BME280;63609;49.992;14.512;2023-03-02T04:15:14;98552.97;;;-2.18;56.14
75039;BME280;63609;49.992;14.512;2023-03-02T04:17:46;98543.97;;;-2.11;54.51
75039;BME280;63609;49.992;14.512;2023-03-02T04:20:17;98549.13;;;-2.09;55.00
75039;BME280;63609;49.992;14.512;2023-03-02T04:22:49;98549.34;;;-1.93;55.36
75039;BME280;63609;49.992;14.512;2023-03-02T04:25:27;98537.25;;;-1.96;54.96
75039;BME280;63609;49.992;14.512;2023-03-02T04:28:02;98539.59;;;-1.88;54.03
75039;BME280;63609;49.992;14.512;2023-03-02T04:30:34;98550.41;;;-1.97;54.75
75039;BME280;63609;49.992;14.512;2023-03-02T04:33:06;98537.69;;;-1.85;54.05
75039;BME280;63609;49.992;14.512;2023-03-02T04:35:34;98542.25;;;-1.90;53.46
75039;BME280;63609;49.992;14.512;2023-03-02T04:38:03;98548.56;;;-1.95;55.38
75039;BME280;63609;49.992;14.512;2023-03-02T04:40:29;98551.97;;;-1.93;54.31
75039;BME280;63609;49.992;14.512;2023-03-02T04:42:56;98539.94;;;-1.97;53.53
75039;BME280;63609;49.992;14.512;2023-03-02T04:45:23;98544.56;;;-1.82;53.68
75039;BME280;63609;49.992;14.512;2023-03-02T04:47:50;98553.25;;;-1.82;54.06
75039;BME280;63609;49.992;14.512;2023-03-02T04:50:17;98549.53;;;-1.76;54.07
75039;BME280;63609;49.992;14.512;2023-03-02T04:52:44;98555.16;;;-1.85;53.21
75039;BME280;63609;49.992;14.512;2023-03-02T04:55:18;98556.41;;;-1.95;52.48
75039;BME280;63609;49.992;14.512;2023-03-02T04:57:45;98551.19;;;-1.95;52.57
75039;BME280;63609;49.992;14.512;2023-03-02T05:00:16;98552.22;;;-2.00;52.40
75039;BME280;63609;49.992;14.512;2023-03-02T05:02:44;98552.72;;;-2.12;52.18
75039;BME280;63609;49.992;14.512;2023-03-02T05:05:23;98557.84;;;-2.09;52.73
75039;BME280;63609;49.992;14.512;2023-03-02T05:07:51;98565.75;;;-2.10;52.96
75039;BME280;63609;49.992;14.512;2023-03-02T05:10:21;98563.50;;;-2.19;53.04
75039;BME280;63609;49.992;14.512;2023-03-02T05:12:49;98550.69;;;-2.27;52.92
75039;BME280;63609;49.992;14.512;2023-03-02T05:15:43;98552.63;;;-2.32;53.26
75039;BME280;63609;49.992;14.512;2023-03-02T05:18:11;98554.34;;;-2.31;52.25
75039;BME280;63609;49.992;14.512;2023-03-02T05:20:38;98550.28;;;-2.38;52.62
75039;BME280;63609;49.992;14.512;2023-03-02T05:23:07;98547.41;;;-2.32;52.74
75039;BME280;63609;49.992;14.512;2023-03-02T05:25:36;98546.31;;;-2.26;52.24
75039;BME280;63609;49.992;14.512;2023-03-02T05:28:04;98552.94;;;-2.40;52.33
75039;BME280;63609;49.992;14.512;2023-03-02T05:30:31;98555.25;;;-2.32;53.09
75039;BME280;63609;49.992;14.512;2023-03-02T05:33:03;98541.69;;;-2.42;53.33
75039;BME280;63609;49.992;14.512;2023-03-02T05:35:30;98558.84;;;-2.35;53.88
75039;BME280;63609;49.992;14.512;2023-03-02T05:38:00;98557.19;;;-2.37;53.07
75039;BME280;63609;49.992;14.512;2023-03-02T05:40:30;98557.03;;;-2.33;53.58
75039;BME280;63609;49.992;14.512;2023-03-02T05:42:57;98558.97;;;-2.38;53.02
75039;BME280;63609;49.992;14.512;2023-03-02T05:45:31;98562.91;;;-2.49;53.02
75039;BME280;63609;49.992;14.512;2023-03-02T05:47:58;98558.72;;;-2.53;52.33
75039;BME280;63609;49.992;14.512;2023-03-02T05:50:26;98560.97;;;-2.44;52.47
75039;BME280;63609;49.992;14.512;2023-03-02T05:52:54;98568.88;;;-2.46;53.30
75039;BME280;63609;49.992;14.512;2023-03-02T05:55:22;98560.47;;;-2.54;53.00
75039;BME280;63609;49.992;14.512;2023-03-02T05:57:49;98562.25;;;-2.56;53.70
75039;BME280;63609;49.992;14.512;2023-03-02T06:00:17;98567.16;;;-2.47;54.48
75039;BME280;63609;49.992;14.512;2023-03-02T06:02:47;98564.56;;;-2.47;54.49
75039;BME280;63609;49.992;14.512;2023-03-02T06:05:17;98563.69;;;-2.47;54.75
75039;BME280;63609;49.992;14.512;2023-03-02T06:07:50;98560.06;;;-2.43;54.64
75039;BME280;63609;49.992;14.512;2023-03-02T06:10:17;98568.09;;;-2.26;54.31
75039;BME280;63609;49.992;14.512;2023-03-02T06:12:44;98570.81;;;-2.29;54.37
75039;BME280;63609;49.992;14.512;2023-03-02T06:15:11;98563.78;;;-2.27;54.90
75039;BME280;63609;49.992;14.512;2023-03-02T06:17:38;98579.56;;;-2.07;54.81
75039;BME280;63609;49.992;14.512;2023-03-02T06:20:06;98569.03;;;-2.05;53.79
75039;BME280;63609;49.992;14.512;2023-03-02T06:22:42;98575.16;;;-2.06;53.50
75039;BME280;63609;49.992;14.512;2023-03-02T06:25:19;98575.13;;;-1.83;54.15
75039;BME280;63609;49.992;14.512;2023-03-02T06:27:46;98575.00;;;-1.80;55.16
75039;BME280;63609;49.992;14.512;2023-03-02T06:30:20;98576.25;;;-1.68;54.24
75039;BME280;63609;49.992;14.512;2023-03-02T06:32:48;98571.94;;;-1.69;54.21
75039;BME280;63609;49.992;14.512;2023-03-02T06:35:15;98577.56;;;-1.58;54.06
75039;BME280;63609;49.992;14.512;2023-03-02T06:37:48;98564.56;;;-1.39;52.98
75039;BME280;63609;49.992;14.512;2023-03-02T06:40:15;98568.41;;;-1.27;53.40
75039;BME280;63609;49.992;14.512;2023-03-02T06:42:43;98574.50;;;-1.27;53.92
75039;BME280;63609;49.992;14.512;2023-03-02T06:45:10;98569.63;;;-1.14;53.65
75039;BME280;63609;49.992;14.512;2023-03-02T06:47:39;98567.03;;;-0.95;53.75
75039;BME280;63609;49.992;14.512;2023-03-02T06:50:06;98562.69;;;-0.76;53.77
75039;BME280;63609;49.992;14.512;2023-03-02T06:52:33;98568.66;;;-0.72;53.67
75039;BME280;63609;49.992;14.512;2023-03-02T06:55:01;98570.31;;;-0.51;53.79
75039;BME280;63609;49.992;14.512;2023-03-02T06:57:34;98568.44;;;-0.30;54.08
75039;BME280;63609;49.992;14.512;2023-03-02T07:00:11;98571.84;;;-0.28;53.08
75039;BME280;63609;49.992;14.512;2023-03-02T07:02:54;98578.50;;;-0.02;51.61
75039;BME280;63609;49.992;14.512;2023-03-02T07:05:24;98569.84;;;0.14;51.18
75039;BME280;63609;49.992;14.512;2023-03-02T07:07:51;98575.03;;;0.16;51.82
75039;BME280;63609;49.992;14.512;2023-03-02T07:10:18;98569.94;;;0.30;51.51
75039;BME280;63609;49.992;14.512;2023-03-02T07:12:45;98564.69;;;-0.06;52.22
75039;BME280;63609;49.992;14.512;2023-03-02T07:15:12;98563.34;;;-0.15;53.00
75039;BME280;63609;49.992;14.512;2023-03-02T07:17:41;98565.81;;;-0.30;52.60
75039;BME280;63609;49.992;14.512;2023-03-02T07:20:12;98550.16;;;0.23;52.00
75039;BME280;63609;49.992;14.512;2023-03-02T07:22:40;98557.50;;;0.34;51.20
75039;BME280;63609;49.992;14.512;2023-03-02T07:25:08;98558.16;;;0.73;51.18
75039;BME280;63609;49.992;14.512;2023-03-02T07:27:36;98555.81;;;0.67;51.25
75039;BME280;63609;49.992;14.512;2023-03-02T07:30:05;98552.38;;;1.17;49.97
75039;BME280;63609;49.992;14.512;2023-03-02T07:32:32;98562.47;;;1.42;49.64
75039;BME280;63609;49.992;14.512;2023-03-02T07:34:58;98560.53;;;1.46;48.56
75039;BME280;63609;49.992;14.512;2023-03-02T07:37:25;98559.00;;;1.57;49.31
75039;BME280;63609;49.992;14.512;2023-03-02T07:39:53;98562.84;;;1.52;48.64
75039;BME280;63609;49.992;14.512;2023-03-02T07:42:19;98548.97;;;1.15;50.28
75039;BME280;63609;49.992;14.512;2023-03-02T07:44:52;98566.47;;;1.32;49.27
75039;BME280;63609;49.992;14.512;2023-03-02T07:47:21;98556.81;;;1.32;50.03
75039;BME280;63609;49.992;14.512;2023-03-02T07:49:49;98552.56;;;1.30;49.62
75039;BME280;63609;49.992;14.512;2023-03-02T07:52:16;98557.00;;;1.78;49.88
75039;BME280;63609;49.992;14.512;2023-03-02T07:54:43;98543.94;;;1.77;48.51
75039;BME280;63609;49.992;14.512;2023-03-02T07:57:09;98549.94;;;1.63;49.41
75039;BME280;63609;49.992;14.512;2023-03-02T07:59:41;98550.88;;;1.46;49.27
75039;BME280;63609;49.992;14.512;2023-03-02T08:02:14;98552.34;;;1.83;49.25
75039;BME280;63609;49.992;14.512;2023-03-02T08:04:42;98552.41;;;1.97;48.64
75039;BME280;63609;49.992;14.512;2023-03-02T08:07:09;98551.91;;;1.75;49.61
75039;BME280;63609;49.992;14.512;2023-03-02T08:09:37;98546.44;;;2.25;48.61
75039;BME280;63609;49.992;14.512;2023-03-02T08:12:05;98551.38;;;2.00;49.78
75039;BME280;63609;49.992;14.512;2023-03-02T08:14:32;98549.06;;;2.25;48.15
75039;BME280;63609;49.992;14.512;2023-03-02T08:16:59;98541.06;;;2.43;48.05
75039;BME280;63609;49.992;14.512;2023-03-02T08:19:26;98546.59;;;2.68;47.49
75039;BME280;63609;49.992;14.512;2023-03-02T08:21:53;98552.72;;;2.39;47.84
75039;BME280;63609;49.992;14.512;2023-03-02T08:24:20;98550.47;;;1.85;49.30
75039;BME280;63609;49.992;14.512;2023-03-02T08:26:47;98544.16;;;2.35;48.64
75039;BME280;63609;49.992;14.512;2023-03-02T08:29:14;98556.41;;;2.66;47.71
75039;BME280;63609;49.992;14.512;2023-03-02T08:31:42;98554.06;;;2.76;48.16
75039;BME280;63609;49.992;14.512;2023-03-02T08:34:10;98542.38;;;2.65;48.52
75039;BME280;63609;49.992;14.512;2023-03-02T08:36:37;98547.94;;;2.75;48.42
75039;BME280;63609;49.992;14.512;2023-03-02T08:39:04;98536.78;;;3.00;47.90
75039;BME280;63609;49.992;14.512;2023-03-02T08:41:34;98539.16;;;3.33;46.81
75039;BME280;63609;49.992;14.512;2023-03-02T08:44:02;98545.25;;;3.62;46.05
75039;BME280;63609;49.992;14.512;2023-03-02T08:46:29;98538.72;;;3.96;45.78
75039;BME280;63609;49.992;14.512;2023-03-02T08:48:57;98539.63;;;4.09;45.87
75039;BME280;63609;49.992;14.512;2023-03-02T08:51:25;98542.03;;;3.85;45.32
75039;BME280;63609;49.992;14.512;2023-03-02T08:53:53;98520.91;;;3.71;45.65
75039;BME280;63609;49.992;14.512;2023-03-02T08:56:29;98532.84;;;4.05;45.17
75039;BME280;63609;49.992;14.512;2023-03-02T08:59:00;98533.53;;;4.21;44.69
75039;BME280;63609;49.992;14.512;2023-03-02T09:01:29;98525.78;;;4.33;44.35
75039;BME280;63609;49.992;14.512;2023-03-02T09:04:00;98532.38;;;4.26;44.18
75039;BME280;63609;49.992;14.512;2023-03-02T09:06:28;98523.53;;;4.79;43.51
75039;BME280;63609;49.992;14.512;2023-03-02T09:08:56;98523.50;;;4.53;44.14
75039;BME280;63609;49.992;14.512;2023-03-02T09:11:23;98523.53;;;4.92;42.69
75039;BME280;63609;49.992;14.512;2023-03-02T09:13:50;98530.13;;;5.11;42.28
75039;BME280;63609;49.992;14.512;2023-03-02T09:16:19;98523.84;;;5.63;42.05
75039;BME280;63609;49.992;14.512;2023-03-02T09:18:46;98531.69;;;5.65;40.42
75039;BME280;63609;49.992;14.512;2023-03-02T09:21:13;98518.47;;;6.01;40.51
75039;BME280;63609;49.992;14.512;2023-03-02T09:23:41;98526.16;;;5.55;40.36
75039;BME280;63609;49.992;14.512;2023-03-02T09:26:09;98532.31;;;5.56;41.03
75039;BME280;63609;49.992;14.512;2023-03-02T09:28:37;98522.38;;;5.59;40.40
75039;BME280;63609;49.992;14.512;2023-03-02T09:31:07;98523.59;;;5.92;38.73
75039;BME280;63609;49.992;14.512;2023-03-02T09:33:34;98527.00;;;5.68;39.47
75039;BME280;63609;49.992;14.512;2023-03-02T09:36:06;98531.75;;;5.89;40.00
75039;BME280;63609;49.992;14.512;2023-03-02T09:38:33;98517.06;;;6.32;38.68
75039;BME280;63609;49.992;14.512;2023-03-02T09:41:06;98517.53;;;6.26;38.25
75039;BME280;63609;49.992;14.512;2023-03-02T09:55:00;98514.16;;;6.24;37.51
75039;BME280;63609;49.992;14.512;2023-03-02T09:57:37;98513.16;;;6.49;37.01
75039;BME280;63609;49.992;14.512;2023-03-02T10:02:58;98511.72;;;6.91;36.91
75039;BME280;63609;49.992;14.512;2023-03-02T10:05:43;98509.44;;;7.09;36.32
75039;BME280;63609;49.992;14.512;2023-03-02T10:08:15;98508.03;;;6.59;36.93
75039;BME280;63609;49.992;14.512;2023-03-02T10:13:42;98506.34;;;6.69;36.85
75039;BME280;63609;49.992;14.512;2023-03-02T10:22:00;98506.38;;;7.71;35.79
75039;BME280;63609;49.992;14.512;2023-03-02T10:24:38;98503.72;;;7.49;34.82
75039;BME280;63609;49.992;14.512;2023-03-02T10:27:26;98500.56;;;7.44;35.44
75039;BME280;63609;49.992;14.512;2023-03-02T10:30:09;98501.66;;;7.63;35.66
75039;BME280;63609;49.992;14.512;2023-03-02T10:32:45;98500.31;;;7.91;34.22
75039;BME280;63609;49.992;14.512;2023-03-02T10:35:17;98490.88;;;8.31;34.75
75039;BME280;63609;49.992;14.512;2023-03-02T10:37:47;98491.53;;;8.23;34.31
75039;BME280;63609;49.992;14.512;2023-03-02T10:40:41;98491.97;;;8.28;33.56
75039;BME280;63609;49.992;14.512;2023-03-02T10:43:15;98482.59;;;8.13;33.07
75039;BME280;63609;49.992;14.512;2023-03-02T10:45:43;98490.97;;;7.97;33.74
75039;BME280;63609;49.992;14.512;2023-03-02T10:48:12;98493.03;;;7.82;34.20
75039;BME280;63609;49.992;14.512;2023-03-02T10:50:41;98491.53;;;8.12;33.62
75039;BME280;63609;49.992;14.512;2023-03-02T10:53:16;98488.50;;;8.48;32.99
75039;BME280;63609;49.992;14.512;2023-03-02T10:55:45;98485.59;;;8.83;32.38
75039;BME280;63609;49.992;14.512;2023-03-02T10:58:30;98485.75;;;8.71;31.93
75039;BME280;63609;49.992;14.512;2023-03-02T11:01:05;98482.19;;;8.28;31.55
75039;BME280;63609;49.992;14.512;2023-03-02T11:03:41;98475.81;;;8.52;32.72
75039;BME280;63609;49.992;14.512;2023-03-02T11:06:19;98471.81;;;8.46;32.20
75039;BME280;63609;49.992;14.512;2023-03-02T11:08:57;98477.72;;;8.50;32.16
75039;BME280;63609;49.992;14.512;2023-03-02T11:11:24;98474.59;;;8.45;31.11
75039;BME280;63609;49.992;14.512;2023-03-02T11:13:51;98471.63;;;8.38;31.74
75039;BME280;63609;49.992;14.512;2023-03-02T11:18:59;98470.69;;;9.02;31.14
75039;BME280;63609;49.992;14.512;2023-03-02T11:24:09;98463.25;;;9.26;30.60
75039;BME280;63609;49.992;14.512;2023-03-02T11:26:51;98465.84;;;9.47;30.27
75039;BME280;63609;49.992;14.512;2023-03-02T11:37:20;98444.66;;;9.86;29.81
75039;BME280;63609;49.992;14.512;2023-03-02T11:42:31;98453.69;;;9.54;30.54
75039;BME280;63609;49.992;14.512;2023-03-02T11:45:23;98446.63;;;9.13;31.99
75039;BME280;63609;49.992;14.512;2023-03-02T11:51:03;98444.94;;;9.42;30.13
75039;BME280;63609;49.992;14.512;2023-03-02T11:53:55;98435.19;;;9.62;29.83
75039;BME280;63609;49.992;14.512;2023-03-02T11:56:28;98430.66;;;9.93;29.69
75039;BME280;63609;49.992;14.512;2023-03-02T11:59:03;98420.59;;;10.16;30.07
75039;BME280;63609;49.992;14.512;2023-03-02T12:01:34;98426.53;;;9.30;30.98
75039;BME280;63609;49.992;14.512;2023-03-02T12:04:08;98414.44;;;9.75;30.59
75039;BME280;63609;49.992;14.512;2023-03-02T12:06:39;98417.88;;;10.64;30.05
75039;BME280;63609;49.992;14.512;2023-03-02T12:09:29;98412.97;;;10.50;28.29
75039;BME280;63609;49.992;14.512;2023-03-02T12:12:09;98417.53;;;10.87;27.73
75039;BME280;63609;49.992;14.512;2023-03-02T12:14:41;98411.13;;;11.07;27.94
75039;BME280;63609;49.992;14.512;2023-03-02T12:19:45;98410.16;;;11.18;27.79
75039;BME280;63609;49.992;14.512;2023-03-02T12:22:26;98402.38;;;10.87;27.61
75039;BME280;63609;49.992;14.512;2023-03-02T12:27:49;98395.00;;;10.52;28.99
75039;BME280;63609;49.992;14.512;2023-03-02T12:35:33;98386.00;;;10.43;29.72
75039;BME280;63609;49.992;14.512;2023-03-02T12:38:04;98389.00;;;10.77;29.05
75039;BME280;63609;49.992;14.512;2023-03-02T12:43:41;98376.00;;;11.02;27.62
75039;BME280;63609;49.992;14.512;2023-03-02T12:46:25;98378.47;;;10.76;27.36
75039;BME280;63609;49.992;14.512;2023-03-02T12:51:53;98369.28;;;11.35;27.65
75039;BME280;63609;49.992;14.512;2023-03-02T12:54:27;98363.47;;;11.40;27.75
75039;BME280;63609;49.992;14.512;2023-03-02T12:57:03;98360.34;;;10.80;27.80
75039;BME280;63609;49.992;14.512;2023-03-02T12:59:34;98361.63;;;11.50;27.31
75039;BME280;63609;49.992;14.512;2023-03-02T13:02:17;98352.78;;;12.03;26.86
75039;BME280;63609;49.992;14.512;2023-03-02T13:05:06;98355.31;;;11.86;27.18
75039;BME280;63609;49.992;14.512;2023-03-02T13:07:43;98358.38;;;11.91;26.38
75039;BME280;63609;49.992;14.512;2023-03-02T13:10:40;98353.16;;;12.08;25.78
75039;BME280;63609;49.992;14.512;2023-03-02T13:15:53;98341.47;;;11.28;27.46
75039;BME280;63609;49.992;14.512;2023-03-02T13:18:21;98342.59;;;11.53;26.39
75039;BME280;63609;49.992;14.512;2023-03-02T13:20:51;98343.00;;;11.30;26.63
75039;BME280;63609;49.992;14.512;2023-03-02T13:23:19;98332.28;;;11.58;25.97
75039;BME280;63609;49.992;14.512;2023-03-02T13:25:55;98326.25;;;11.56;26.47
75039;BME280;63609;49.992;14.512;2023-03-02T13:28:38;98325.50;;;11.81;26.10
75039;BME280;63609;49.992;14.512;2023-03-02T13:31:21;98328.31;;;11.62;26.37
75039;BME280;63609;49.992;14.512;2023-03-02T13:33:52;98326.88;;;12.21;25.83
75039;BME280;63609;49.992;14.512;2023-03-02T13:36:22;98315.84;;;11.71;25.63
75039;BME280;63609;49.992;14.512;2023-03-02T13:39:00;98301.88;;;11.59;25.57
75039;BME280;63609;49.992;14.512;2023-03-02T13:41:34;98313.13;;;11.17;26.26
75039;BME280;63609;49.992;14.512;2023-03-02T13:44:20;98301.25;;;11.47;26.51
75039;BME280;63609;49.992;14.512;2023-03-02T13:46:49;98314.13;;;11.79;25.40
75039;BME280;63609;49.992;14.512;2023-03-02T13:49:31;98307.16;;;11.86;25.49
75039;BME280;63609;49.992;14.512;2023-03-02T13:52:11;98299.06;;;11.05;26.60
75039;BME280;63609;49.992;14.512;2023-03-02T13:54:41;98303.31;;;11.53;26.16
75039;BME280;63609;49.992;14.512;2023-03-02T13:57:14;98297.53;;;11.58;24.96
75039;BME280;63609;49.992;14.512;2023-03-02T13:59:45;98292.47;;;11.73;25.13
75039;BME280;63609;49.992;14.512;2023-03-02T14:02:25;98292.25;;;11.66;24.54
75039;BME280;63609;49.992;14.512;2023-03-02T14:04:53;98289.50;;;11.58;24.96
75039;BME280;63609;49.992;14.512;2023-03-02T14:07:21;98293.97;;;11.40;25.25
75039;BME280;63609;49.992;14.512;2023-03-02T14:09:48;98281.31;;;11.59;25.66
75039;BME280;63609;49.992;14.512;2023-03-02T14:12:23;98285.84;;;11.77;24.18
75039;BME280;63609;49.992;14.512;2023-03-02T14:14:52;98286.06;;;11.83;24.76
75039;BME280;63609;49.992;14.512;2023-03-02T14:17:23;98281.41;;;11.85;24.49
75039;BME280;63609;49.992;14.512;2023-03-02T14:19:51;98275.88;;;11.69;25.94
75039;BME280;63609;49.992;14.512;2023-03-02T14:22:20;98273.09;;;12.14;23.87
75039;BME280;63609;49.992;14.512;2023-03-02T14:24:48;98273.69;;;11.82;24.12
75039;BME280;63609;49.992;14.512;2023-03-02T14:27:16;98275.91;;;11.87;24.09
75039;BME280;63609;49.992;14.512;2023-03-02T14:29:45;98268.25;;;11.92;24.33